sensor_id;sensor_type;location;lat;lon;timestamp;pressure;altitude;pressure_sealevel;temperature;humidity
55604;BME280;41468;48.838;9.330;2022-07-22T00:00:00;98675.44;;;19.57;78.08
55604;BME280;41468;48.838;9.330;2022-07-22T00:02:30;98679.03;;;19.34;80.46
55604;BME280;41468;48.838;9.330;2022-07-22T00:04:59;98681.06;;;19.30;81.00
55604;BME280;41468;48.838;9.330;2022-07-22T00:07:30;98679.06;;;19.11;81.84
55604;BME280;41468;48.838;9.330;2022-07-22T00:10:03;98675.50;;;18.86;83.58
55604;BME280;41468;48.838;9.330;2022-07-22T00:12:34;98675.41;;;18.94;81.92
55604;BME280;41468;48.838;9.330;2022-07-22T00:15:05;98673.94;;;18.85;83.32
55604;BME280;41468;48.838;9.330;2022-07-22T00:17:35;98673.09;;;18.89;82.30
55604;BME280;41468;48.838;9.330;2022-07-22T00:20:07;98674.41;;;19.04;82.59
55604;BME280;41468;48.838;9.330;2022-07-22T00:22:37;98676.84;;;19.02;82.67
55604;BME280;41468;48.838;9.330;2022-07-22T00:25:10;98676.75;;;18.82;84.43
55604;BME280;41468;48.838;9.330;2022-07-22T00:27:40;98676.47;;;18.76;83.93
55604;BME280;41468;48.838;9.330;2022-07-22T00:30:11;98669.00;;;18.97;82.21
55604;BME280;41468;48.838;9.330;2022-07-22T00:32:41;98673.41;;;18.94;83.42
55604;BME280;41468;48.838;9.330;2022-07-22T00:35:10;98671.88;;;18.90;82.94
55604;BME280;41468;48.838;9.330;2022-07-22T00:37:40;98674.28;;;18.88;83.58
55604;BME280;41468;48.838;9.330;2022-07-22T00:40:13;98671.59;;;18.84;82.95
55604;BME280;41468;48.838;9.330;2022-07-22T00:42:43;98671.50;;;18.88;83.30
55604;BME280;41468;48.838;9.330;2022-07-22T00:45:13;98672.16;;;18.72;84.47
55604;BME280;41468;48.838;9.330;2022-07-22T00:47:43;98665.44;;;18.73;83.78
55604;BME280;41468;48.838;9.330;2022-07-22T00:50:13;98669.09;;;18.66;84.94
55604;BME280;41468;48.838;9.330;2022-07-22T00:52:47;98663.53;;;18.70;84.79
55604;BME280;41468;48.838;9.330;2022-07-22T00:55:19;98666.47;;;18.55;85.67
55604;BME280;41468;48.838;9.330;2022-07-22T00:57:49;98665.31;;;18.53;86.14
55604;BME280;41468;48.838;9.330;2022-07-22T01:00:20;98666.59;;;18.48;85.70
55604;BME280;41468;48.838;9.330;2022-07-22T01:02:50;98662.00;;;18.38;86.89
55604;BME280;41468;48.838;9.330;2022-07-22T01:05:20;98664.69;;;18.41;86.47
55604;BME280;41468;48.838;9.330;2022-07-22T01:07:50;98664.22;;;18.47;85.66
55604;BME280;41468;48.838;9.330;2022-07-22T01:10:22;98663.16;;;18.40;86.31
55604;BME280;41468;48.838;9.330;2022-07-22T01:12:52;98661.63;;;18.36;87.26
55604;BME280;41468;48.838;9.330;2022-07-22T01:15:22;98664.84;;;18.31;87.77
55604;BME280;41468;48.838;9.330;2022-07-22T01:17:52;98659.28;;;18.34;87.52
55604;BME280;41468;48.838;9.330;2022-07-22T01:20:24;98667.94;;;18.36;87.56
55604;BME280;41468;48.838;9.330;2022-07-22T01:22:54;98661.09;;;18.45;86.18
55604;BME280;41468;48.838;9.330;2022-07-22T01:25:24;98659.13;;;18.45;85.67
55604;BME280;41468;48.838;9.330;2022-07-22T01:27:54;98653.53;;;18.49;86.00
55604;BME280;41468;48.838;9.330;2022-07-22T01:30:24;98655.69;;;18.37;86.86
55604;BME280;41468;48.838;9.330;2022-07-22T01:32:53;98661.72;;;18.29;86.53
55604;BME280;41468;48.838;9.330;2022-07-22T01:35:26;98658.38;;;18.14;88.53
55604;BME280;41468;48.838;9.330;2022-07-22T01:37:56;98658.53;;;18.30;87.50
55604;BME280;41468;48.838;9.330;2022-07-22T01:40:26;98659.22;;;18.11;88.96
55604;BME280;41468;48.838;9.330;2022-07-22T01:42:55;98659.22;;;18.11;87.98
55604;BME280;41468;48.838;9.330;2022-07-22T01:45:25;98664.94;;;17.96;89.73
55604;BME280;41468;48.838;9.330;2022-07-22T01:47:55;98659.88;;;17.91;90.12
55604;BME280;41468;48.838;9.330;2022-07-22T01:50:28;98661.25;;;18.07;88.73
55604;BME280;41468;48.838;9.330;2022-07-22T01:52:58;98665.91;;;18.13;88.34
55604;BME280;41468;48.838;9.330;2022-07-22T01:55:28;98656.84;;;18.09;89.43
55604;BME280;41468;48.838;9.330;2022-07-22T01:57:58;98663.63;;;18.05;88.58
55604;BME280;41468;48.838;9.330;2022-07-22T02:00:27;98658.09;;;18.05;88.66
55604;BME280;41468;48.838;9.330;2022-07-22T02:02:57;98662.16;;;17.96;89.85
55604;BME280;41468;48.838;9.330;2022-07-22T02:05:30;98650.44;;;17.85;91.03
55604;BME280;41468;48.838;9.330;2022-07-22T02:08:01;98665.50;;;17.84;90.15
55604;BME280;41468;48.838;9.330;2022-07-22T02:10:31;98663.09;;;17.86;90.11
55604;BME280;41468;48.838;9.330;2022-07-22T02:13:02;98658.47;;;17.76;90.97
55604;BME280;41468;48.838;9.330;2022-07-22T02:15:32;98659.19;;;17.80;90.91
55604;BME280;41468;48.838;9.330;2022-07-22T02:18:10;98652.69;;;17.63;91.85
55604;BME280;41468;48.838;9.330;2022-07-22T02:20:43;98658.16;;;17.67;91.17
55604;BME280;41468;48.838;9.330;2022-07-22T02:23:13;98653.91;;;17.59;92.69
55604;BME280;41468;48.838;9.330;2022-07-22T02:25:43;98653.06;;;17.62;92.37
55604;BME280;41468;48.838;9.330;2022-07-22T02:28:12;98654.22;;;17.68;91.06
55604;BME280;41468;48.838;9.330;2022-07-22T02:30:42;98647.22;;;17.56;92.56
55604;BME280;41468;48.838;9.330;2022-07-22T02:33:12;98649.59;;;17.58;91.56
55604;BME280;41468;48.838;9.330;2022-07-22T02:35:45;98642.13;;;17.54;91.49
55604;BME280;41468;48.838;9.330;2022-07-22T02:38:15;98641.47;;;17.43;92.67
55604;BME280;41468;48.838;9.330;2022-07-22T02:40:45;98644.25;;;17.40;92.87
55604;BME280;41468;48.838;9.330;2022-07-22T02:43:14;98648.63;;;17.37;92.86
55604;BME280;41468;48.838;9.330;2022-07-22T02:45:44;98644.34;;;17.29;94.16
55604;BME280;41468;48.838;9.330;2022-07-22T02:48:14;98638.38;;;17.34;92.80
55604;BME280;41468;48.838;9.330;2022-07-22T02:50:50;98645.25;;;17.19;94.45
55604;BME280;41468;48.838;9.330;2022-07-22T02:53:19;98643.13;;;17.33;92.72
55604;BME280;41468;48.838;9.330;2022-07-22T02:55:49;98643.06;;;17.41;92.29
55604;BME280;41468;48.838;9.330;2022-07-22T02:58:19;98638.09;;;17.25;93.84
55604;BME280;41468;48.838;9.330;2022-07-22T03:00:50;98645.19;;;17.26;93.06
55604;BME280;41468;48.838;9.330;2022-07-22T03:03:20;98650.44;;;17.17;94.17
55604;BME280;41468;48.838;9.330;2022-07-22T03:05:53;98652.44;;;17.13;94.41
55604;BME280;41468;48.838;9.330;2022-07-22T03:08:23;98646.00;;;17.23;94.12
55604;BME280;41468;48.838;9.330;2022-07-22T03:10:53;98646.50;;;17.14;95.55
55604;BME280;41468;48.838;9.330;2022-07-22T03:13:22;98645.25;;;17.19;94.40
55604;BME280;41468;48.838;9.330;2022-07-22T03:15:52;98650.31;;;17.27;92.22
55604;BME280;41468;48.838;9.330;2022-07-22T03:18:22;98656.84;;;17.06;95.30
55604;BME280;41468;48.838;9.330;2022-07-22T03:20:54;98645.41;;;17.04;94.73
55604;BME280;41468;48.838;9.330;2022-07-22T03:23:24;98642.75;;;16.94;95.67
55604;BME280;41468;48.838;9.330;2022-07-22T03:25:55;98648.72;;;16.88;95.82
55604;BME280;41468;48.838;9.330;2022-07-22T03:28:25;98650.66;;;16.92;95.22
55604;BME280;41468;48.838;9.330;2022-07-22T03:30:55;98655.47;;;16.84;95.40
55604;BME280;41468;48.838;9.330;2022-07-22T03:33:24;98646.38;;;16.83;96.13
55604;BME280;41468;48.838;9.330;2022-07-22T03:35:57;98655.06;;;16.85;96.33
55604;BME280;41468;48.838;9.330;2022-07-22T03:38:27;98655.00;;;16.89;96.05
55604;BME280;41468;48.838;9.330;2022-07-22T03:40:56;98657.47;;;16.76;97.36
55604;BME280;41468;48.838;9.330;2022-07-22T03:43:26;98659.44;;;16.76;96.18
55604;BME280;41468;48.838;9.330;2022-07-22T03:45:56;98656.66;;;16.76;96.17
55604;BME280;41468;48.838;9.330;2022-07-22T03:48:26;98654.72;;;16.73;96.59
55604;BME280;41468;48.838;9.330;2022-07-22T03:50:59;98653.91;;;16.76;96.00
55604;BME280;41468;48.838;9.330;2022-07-22T03:53:29;98657.81;;;16.85;95.51
55604;BME280;41468;48.838;9.330;2022-07-22T03:55:59;98656.66;;;16.83;95.23
55604;BME280;41468;48.838;9.330;2022-07-22T03:58:29;98655.13;;;16.75;98.12
55604;BME280;41468;48.838;9.330;2022-07-22T04:00:59;98651.16;;;16.76;97.34
55604;BME280;41468;48.838;9.330;2022-07-22T04:03:30;98658.72;;;16.68;98.78
55604;BME280;41468;48.838;9.330;2022-07-22T04:06:02;98654.81;;;16.65;98.96
55604;BME280;41468;48.838;9.330;2022-07-22T04:08:33;98660.19;;;16.83;96.24
55604;BME280;41468;48.838;9.330;2022-07-22T04:11:03;98659.50;;;16.69;97.39
55604;BME280;41468;48.838;9.330;2022-07-22T04:13:33;98665.06;;;16.61;98.43
55604;BME280;41468;48.838;9.330;2022-07-22T04:16:04;98658.75;;;16.64;97.90
55604;BME280;41468;48.838;9.330;2022-07-22T04:18:34;98668.53;;;16.73;96.85
55604;BME280;41468;48.838;9.330;2022-07-22T04:21:06;98662.66;;;16.71;97.58
55604;BME280;41468;48.838;9.330;2022-07-22T04:23:36;98665.44;;;16.67;97.91
55604;BME280;41468;48.838;9.330;2022-07-22T04:26:06;98655.53;;;16.70;97.19
55604;BME280;41468;48.838;9.330;2022-07-22T04:28:36;98660.69;;;16.71;97.81
55604;BME280;41468;48.838;9.330;2022-07-22T04:31:06;98660.25;;;16.76;97.48
55604;BME280;41468;48.838;9.330;2022-07-22T04:33:37;98660.63;;;16.82;96.26
55604;BME280;41468;48.838;9.330;2022-07-22T04:36:10;98659.09;;;16.70;98.46
55604;BME280;41468;48.838;9.330;2022-07-22T04:38:39;98651.50;;;16.85;96.57
55604;BME280;41468;48.838;9.330;2022-07-22T04:41:09;98662.38;;;17.06;94.63
55604;BME280;41468;48.838;9.330;2022-07-22T04:43:39;98658.50;;;16.97;95.59
55604;BME280;41468;48.838;9.330;2022-07-22T04:46:09;98661.03;;;16.77;97.21
55604;BME280;41468;48.838;9.330;2022-07-22T04:48:39;98650.63;;;16.95;95.83
55604;BME280;41468;48.838;9.330;2022-07-22T04:51:11;98652.91;;;17.04;94.49
55604;BME280;41468;48.838;9.330;2022-07-22T04:53:41;98656.50;;;17.01;94.93
55604;BME280;41468;48.838;9.330;2022-07-22T04:56:15;98649.81;;;16.98;96.23
55604;BME280;41468;48.838;9.330;2022-07-22T04:58:46;98644.97;;;17.09;94.11
55604;BME280;41468;48.838;9.330;2022-07-22T05:01:15;98643.31;;;17.16;94.06
55604;BME280;41468;48.838;9.330;2022-07-22T05:03:45;98646.72;;;17.30;92.76
55604;BME280;41468;48.838;9.330;2022-07-22T05:06:18;98647.22;;;17.22;94.99
55604;BME280;41468;48.838;9.330;2022-07-22T05:08:48;98647.50;;;17.31;93.99
55604;BME280;41468;48.838;9.330;2022-07-22T05:11:18;98642.94;;;17.51;92.52
55604;BME280;41468;48.838;9.330;2022-07-22T05:13:48;98643.09;;;17.71;90.98
55604;BME280;41468;48.838;9.330;2022-07-22T05:16:18;98646.63;;;17.75;90.81
55604;BME280;41468;48.838;9.330;2022-07-22T05:18:48;98643.84;;;18.06;88.77
55604;BME280;41468;48.838;9.330;2022-07-22T05:21:21;98646.53;;;18.68;83.65
55604;BME280;41468;48.838;9.330;2022-07-22T05:23:51;98649.69;;;19.77;79.88
55604;BME280;41468;48.838;9.330;2022-07-22T05:26:21;98641.78;;;22.13;69.00
55604;BME280;41468;48.838;9.330;2022-07-22T05:28:52;98649.56;;;23.74;62.71
55604;BME280;41468;48.838;9.330;2022-07-22T05:31:22;98650.59;;;25.29;56.03
55604;BME280;41468;48.838;9.330;2022-07-22T05:33:52;98649.72;;;26.02;53.40
55604;BME280;41468;48.838;9.330;2022-07-22T05:36:25;98648.41;;;27.22;50.99
55604;BME280;41468;48.838;9.330;2022-07-22T05:38:55;98646.00;;;27.83;48.59
55604;BME280;41468;48.838;9.330;2022-07-22T05:41:25;98642.41;;;28.27;47.10
55604;BME280;41468;48.838;9.330;2022-07-22T05:43:55;98644.38;;;28.91;45.62
55604;BME280;41468;48.838;9.330;2022-07-22T05:46:25;98647.44;;;28.38;45.81
55604;BME280;41468;48.838;9.330;2022-07-22T05:48:55;98644.03;;;29.04;44.65
55604;BME280;41468;48.838;9.330;2022-07-22T05:51:28;98649.38;;;29.02;45.41
55604;BME280;41468;48.838;9.330;2022-07-22T05:53:58;98649.81;;;30.14;43.17
55604;BME280;41468;48.838;9.330;2022-07-22T05:56:29;98655.88;;;30.01;43.35
55604;BME280;41468;48.838;9.330;2022-07-22T05:58:58;98646.97;;;30.40;42.21
55604;BME280;41468;48.838;9.330;2022-07-22T06:01:28;98647.91;;;30.32;42.21
55604;BME280;41468;48.838;9.330;2022-07-22T06:03:58;98653.88;;;30.08;42.63
55604;BME280;41468;48.838;9.330;2022-07-22T06:06:31;98655.16;;;29.80;43.30
55604;BME280;41468;48.838;9.330;2022-07-22T06:09:01;98643.53;;;29.06;44.52
55604;BME280;41468;48.838;9.330;2022-07-22T06:11:31;98643.59;;;28.05;46.91
55604;BME280;41468;48.838;9.330;2022-07-22T06:14:00;98645.88;;;26.75;49.71
55604;BME280;41468;48.838;9.330;2022-07-22T06:16:31;98653.72;;;25.68;53.62
55604;BME280;41468;48.838;9.330;2022-07-22T06:19:02;98651.91;;;24.78;56.73
55604;BME280;41468;48.838;9.330;2022-07-22T06:21:34;98650.84;;;24.04;59.68
55604;BME280;41468;48.838;9.330;2022-07-22T06:24:10;98646.31;;;23.54;61.70
55604;BME280;41468;48.838;9.330;2022-07-22T06:26:40;98643.34;;;23.13;63.50
55604;BME280;41468;48.838;9.330;2022-07-22T06:29:11;98640.53;;;22.78;64.69
55604;BME280;41468;48.838;9.330;2022-07-22T06:31:41;98641.50;;;22.85;63.64
55604;BME280;41468;48.838;9.330;2022-07-22T06:34:10;98643.41;;;22.88;65.08
55604;BME280;41468;48.838;9.330;2022-07-22T06:36:43;98637.09;;;22.49;66.38
55604;BME280;41468;48.838;9.330;2022-07-22T06:39:13;98644.34;;;22.46;66.77
55604;BME280;41468;48.838;9.330;2022-07-22T06:41:43;98642.75;;;22.45;67.49
55604;BME280;41468;48.838;9.330;2022-07-22T06:44:13;98633.81;;;22.63;66.72
55604;BME280;41468;48.838;9.330;2022-07-22T06:46:42;98635.72;;;22.79;66.15
55604;BME280;41468;48.838;9.330;2022-07-22T06:49:14;98644.06;;;22.92;65.16
55604;BME280;41468;48.838;9.330;2022-07-22T06:51:47;98640.91;;;23.02;65.41
55604;BME280;41468;48.838;9.330;2022-07-22T06:54:16;98641.63;;;22.94;65.79
55604;BME280;41468;48.838;9.330;2022-07-22T06:56:46;98645.97;;;22.95;65.67
55604;BME280;41468;48.838;9.330;2022-07-22T06:59:16;98642.50;;;23.25;64.84
55604;BME280;41468;48.838;9.330;2022-07-22T07:01:46;98637.66;;;23.39;64.20
55604;BME280;41468;48.838;9.330;2022-07-22T07:04:15;98639.88;;;23.44;64.51
55604;BME280;41468;48.838;9.330;2022-07-22T07:06:48;98637.44;;;23.33;65.03
55604;BME280;41468;48.838;9.330;2022-07-22T07:09:18;98636.72;;;23.55;63.30
55604;BME280;41468;48.838;9.330;2022-07-22T07:11:48;98636.06;;;23.51;63.58
55604;BME280;41468;48.838;9.330;2022-07-22T07:14:17;98638.16;;;23.59;63.64
55604;BME280;41468;48.838;9.330;2022-07-22T07:16:47;98630.72;;;23.87;62.65
55604;BME280;41468;48.838;9.330;2022-07-22T07:19:17;98626.97;;;24.12;62.06
55604;BME280;41468;48.838;9.330;2022-07-22T07:21:50;98621.63;;;23.96;61.86
55604;BME280;41468;48.838;9.330;2022-07-22T07:24:20;98622.25;;;24.00;61.98
55604;BME280;41468;48.838;9.330;2022-07-22T07:26:50;98617.81;;;24.12;61.53
55604;BME280;41468;48.838;9.330;2022-07-22T07:29:19;98621.41;;;24.62;59.42
55604;BME280;41468;48.838;9.330;2022-07-22T07:31:50;98614.59;;;24.72;61.38
55604;BME280;41468;48.838;9.330;2022-07-22T07:34:20;98610.44;;;24.77;61.04
55604;BME280;41468;48.838;9.330;2022-07-22T07:36:52;98610.09;;;24.66;60.64
55604;BME280;41468;48.838;9.330;2022-07-22T07:39:22;98611.38;;;24.92;61.19
55604;BME280;41468;48.838;9.330;2022-07-22T07:41:52;98609.84;;;25.00;59.61
55604;BME280;41468;48.838;9.330;2022-07-22T07:44:22;98599.41;;;25.38;58.08
55604;BME280;41468;48.838;9.330;2022-07-22T07:46:52;98598.19;;;25.30;58.21
55604;BME280;41468;48.838;9.330;2022-07-22T07:49:21;98598.03;;;25.24;57.44
55604;BME280;41468;48.838;9.330;2022-07-22T07:51:54;98594.00;;;24.97;57.79
55604;BME280;41468;48.838;9.330;2022-07-22T07:54:24;98592.56;;;25.48;56.63
55604;BME280;41468;48.838;9.330;2022-07-22T07:57:06;98584.03;;;25.61;56.10
55604;BME280;41468;48.838;9.330;2022-07-22T07:59:40;98580.00;;;25.53;56.38
55604;BME280;41468;48.838;9.330;2022-07-22T08:02:10;98588.06;;;25.69;56.45
55604;BME280;41468;48.838;9.330;2022-07-22T08:04:40;98583.84;;;25.74;57.47
55604;BME280;41468;48.838;9.330;2022-07-22T08:07:19;98578.88;;;26.11;56.13
55604;BME280;41468;48.838;9.330;2022-07-22T08:09:49;98584.66;;;26.17;55.08
55604;BME280;41468;48.838;9.330;2022-07-22T08:12:36;98581.56;;;26.39;55.21
55604;BME280;41468;48.838;9.330;2022-07-22T08:15:07;98584.59;;;26.26;55.40
55604;BME280;41468;48.838;9.330;2022-07-22T08:17:37;98584.06;;;26.37;55.01
55604;BME280;41468;48.838;9.330;2022-07-22T08:20:08;98586.66;;;26.73;53.92
55604;BME280;41468;48.838;9.330;2022-07-22T08:22:47;98581.34;;;26.75;54.56
55604;BME280;41468;48.838;9.330;2022-07-22T08:25:18;98577.22;;;26.62;54.69
55604;BME280;41468;48.838;9.330;2022-07-22T08:27:48;98576.41;;;26.70;56.11
55604;BME280;41468;48.838;9.330;2022-07-22T08:30:18;98579.88;;;26.65;54.91
55604;BME280;41468;48.838;9.330;2022-07-22T08:32:50;98574.94;;;26.75;55.28
55604;BME280;41468;48.838;9.330;2022-07-22T08:35:20;98571.94;;;26.88;54.61
55604;BME280;41468;48.838;9.330;2022-07-22T08:37:53;98576.78;;;27.02;54.65
55604;BME280;41468;48.838;9.330;2022-07-22T08:40:23;98573.41;;;26.98;53.73
55604;BME280;41468;48.838;9.330;2022-07-22T08:42:53;98575.13;;;26.71;53.67
55604;BME280;41468;48.838;9.330;2022-07-22T08:45:23;98568.88;;;27.01;53.95
55604;BME280;41468;48.838;9.330;2022-07-22T08:47:53;98570.75;;;27.18;54.38
55604;BME280;41468;48.838;9.330;2022-07-22T08:50:22;98564.47;;;27.38;54.31
55604;BME280;41468;48.838;9.330;2022-07-22T08:52:56;98553.75;;;27.52;53.35
55604;BME280;41468;48.838;9.330;2022-07-22T08:55:26;98553.44;;;27.35;53.09
55604;BME280;41468;48.838;9.330;2022-07-22T08:57:55;98548.53;;;27.59;53.33
55604;BME280;41468;48.838;9.330;2022-07-22T09:00:25;98548.91;;;27.82;52.08
55604;BME280;41468;48.838;9.330;2022-07-22T09:02:55;98542.28;;;27.85;52.45
55604;BME280;41468;48.838;9.330;2022-07-22T09:05:32;98549.75;;;27.29;51.70
55604;BME280;41468;48.838;9.330;2022-07-22T09:08:14;98539.81;;;27.42;51.86
55604;BME280;41468;48.838;9.330;2022-07-22T09:10:44;98538.63;;;27.79;52.68
55604;BME280;41468;48.838;9.330;2022-07-22T09:13:15;98534.97;;;27.73;51.67
55604;BME280;41468;48.838;9.330;2022-07-22T09:15:50;98538.69;;;28.14;49.84
55604;BME280;41468;48.838;9.330;2022-07-22T09:18:20;98542.84;;;28.19;50.00
55604;BME280;41468;48.838;9.330;2022-07-22T09:20:57;98537.44;;;28.15;51.09
55604;BME280;41468;48.838;9.330;2022-07-22T09:23:39;98540.34;;;28.06;50.28
55604;BME280;41468;48.838;9.330;2022-07-22T09:26:29;98542.16;;;28.24;49.10
55604;BME280;41468;48.838;9.330;2022-07-22T09:28:59;98535.09;;;28.14;48.69
55604;BME280;41468;48.838;9.330;2022-07-22T09:31:33;98539.19;;;28.33;49.75
55604;BME280;41468;48.838;9.330;2022-07-22T09:34:05;98534.84;;;28.52;50.23
55604;BME280;41468;48.838;9.330;2022-07-22T09:36:53;98528.53;;;28.37;49.77
55604;BME280;41468;48.838;9.330;2022-07-22T09:39:29;98528.81;;;28.60;48.66
55604;BME280;41468;48.838;9.330;2022-07-22T09:42:00;98531.66;;;28.80;50.50
55604;BME280;41468;48.838;9.330;2022-07-22T09:44:31;98527.38;;;29.11;49.44
55604;BME280;41468;48.838;9.330;2022-07-22T09:47:01;98521.16;;;29.01;48.59
55604;BME280;41468;48.838;9.330;2022-07-22T09:49:32;98518.53;;;28.98;49.45
55604;BME280;41468;48.838;9.330;2022-07-22T09:52:04;98520.09;;;28.99;49.02
55604;BME280;41468;48.838;9.330;2022-07-22T09:54:37;98524.88;;;28.92;49.35
55604;BME280;41468;48.838;9.330;2022-07-22T09:57:07;98514.72;;;29.01;48.56
55604;BME280;41468;48.838;9.330;2022-07-22T09:59:37;98517.16;;;29.13;46.39
55604;BME280;41468;48.838;9.330;2022-07-22T10:02:08;98510.41;;;29.26;45.46
55604;BME280;41468;48.838;9.330;2022-07-22T10:04:39;98504.25;;;29.53;45.21
55604;BME280;41468;48.838;9.330;2022-07-22T10:07:10;98508.84;;;29.51;42.42
55604;BME280;41468;48.838;9.330;2022-07-22T10:09:46;98508.50;;;29.17;43.19
55604;BME280;41468;48.838;9.330;2022-07-22T10:12:17;98498.56;;;29.48;42.49
55604;BME280;41468;48.838;9.330;2022-07-22T10:14:48;98496.59;;;29.59;42.20
55604;BME280;41468;48.838;9.330;2022-07-22T10:17:18;98492.69;;;29.51;41.58
55604;BME280;41468;48.838;9.330;2022-07-22T10:19:48;98485.72;;;29.78;41.99
55604;BME280;41468;48.838;9.330;2022-07-22T10:25:52;98470.81;;;30.04;40.73
55604;BME280;41468;48.838;9.330;2022-07-22T10:28:26;98473.69;;;30.15;42.09
55604;BME280;41468;48.838;9.330;2022-07-22T10:31:17;98462.81;;;30.40;40.68
55604;BME280;41468;48.838;9.330;2022-07-22T10:33:49;98468.31;;;30.17;40.42
55604;BME280;41468;48.838;9.330;2022-07-22T10:36:33;98462.97;;;30.19;40.38
55604;BME280;41468;48.838;9.330;2022-07-22T10:39:06;98462.16;;;30.19;40.38
55604;BME280;41468;48.838;9.330;2022-07-22T10:41:41;98452.22;;;30.35;40.17
55604;BME280;41468;48.838;9.330;2022-07-22T10:44:46;98459.28;;;30.62;39.49
55604;BME280;41468;48.838;9.330;2022-07-22T10:50:43;98447.69;;;30.43;39.82
55604;BME280;41468;48.838;9.330;2022-07-22T10:53:15;98449.72;;;30.37;39.44
55604;BME280;41468;48.838;9.330;2022-07-22T10:56:06;98442.25;;;30.34;40.52
55604;BME280;41468;48.838;9.330;2022-07-22T10:58:54;98430.75;;;30.43;39.64
55604;BME280;41468;48.838;9.330;2022-07-22T11:01:27;98435.38;;;30.46;40.08
55604;BME280;41468;48.838;9.330;2022-07-22T11:04:11;98430.59;;;30.75;39.24
55604;BME280;41468;48.838;9.330;2022-07-22T11:06:45;98437.84;;;30.98;39.30
55604;BME280;41468;48.838;9.330;2022-07-22T11:09:17;98423.13;;;30.60;39.13
55604;BME280;41468;48.838;9.330;2022-07-22T11:11:48;98425.78;;;30.98;40.25
55604;BME280;41468;48.838;9.330;2022-07-22T11:14:28;98429.66;;;31.11;39.68
55604;BME280;41468;48.838;9.330;2022-07-22T11:17:00;98432.97;;;30.99;38.55
55604;BME280;41468;48.838;9.330;2022-07-22T11:19:33;98418.53;;;30.85;39.08
55604;BME280;41468;48.838;9.330;2022-07-22T11:22:06;98413.47;;;31.12;39.42
55604;BME280;41468;48.838;9.330;2022-07-22T11:24:37;98411.94;;;31.11;39.72
55604;BME280;41468;48.838;9.330;2022-07-22T11:27:09;98414.50;;;31.31;40.13
55604;BME280;41468;48.838;9.330;2022-07-22T11:29:48;98408.59;;;31.41;38.75
55604;BME280;41468;48.838;9.330;2022-07-22T11:32:20;98405.75;;;31.46;38.74
55604;BME280;41468;48.838;9.330;2022-07-22T11:34:55;98400.63;;;31.17;39.45
55604;BME280;41468;48.838;9.330;2022-07-22T11:37:27;98399.88;;;31.22;38.57
55604;BME280;41468;48.838;9.330;2022-07-22T11:39:59;98401.13;;;31.26;38.27
55604;BME280;41468;48.838;9.330;2022-07-22T11:42:30;98403.97;;;31.09;38.75
55604;BME280;41468;48.838;9.330;2022-07-22T11:45:04;98384.97;;;31.16;37.86
55604;BME280;41468;48.838;9.330;2022-07-22T11:47:33;98385.22;;;31.18;38.79
55604;BME280;41468;48.838;9.330;2022-07-22T11:50:04;98384.69;;;31.42;38.96
55604;BME280;41468;48.838;9.330;2022-07-22T11:52:34;98373.66;;;31.38;38.92
55604;BME280;41468;48.838;9.330;2022-07-22T11:55:14;98371.06;;;31.40;39.58
55604;BME280;41468;48.838;9.330;2022-07-22T11:57:46;98370.78;;;31.66;39.97
55604;BME280;41468;48.838;9.330;2022-07-22T12:00:20;98362.53;;;31.79;38.66
55604;BME280;41468;48.838;9.330;2022-07-22T12:02:51;98360.53;;;31.46;39.91
55604;BME280;41468;48.838;9.330;2022-07-22T12:05:21;98354.59;;;31.78;37.89
55604;BME280;41468;48.838;9.330;2022-07-22T12:07:59;98347.16;;;31.64;38.07
55604;BME280;41468;48.838;9.330;2022-07-22T12:10:30;98341.03;;;31.54;38.45
55604;BME280;41468;48.838;9.330;2022-07-22T12:13:00;98341.47;;;31.69;37.49
55604;BME280;41468;48.838;9.330;2022-07-22T12:15:33;98342.03;;;31.45;37.86
55604;BME280;41468;48.838;9.330;2022-07-22T12:18:17;98336.41;;;30.66;38.30
55604;BME280;41468;48.838;9.330;2022-07-22T12:20:47;98330.25;;;30.68;39.63
55604;BME280;41468;48.838;9.330;2022-07-22T12:23:21;98338.50;;;31.17;38.56
55604;BME280;41468;48.838;9.330;2022-07-22T12:25:56;98322.56;;;31.25;38.75
55604;BME280;41468;48.838;9.330;2022-07-22T12:28:26;98318.38;;;31.71;38.36
55604;BME280;41468;48.838;9.330;2022-07-22T12:30:59;98322.19;;;31.79;38.47
55604;BME280;41468;48.838;9.330;2022-07-22T12:33:29;98316.09;;;31.58;37.71
55604;BME280;41468;48.838;9.330;2022-07-22T12:36:00;98318.47;;;31.15;38.10
55604;BME280;41468;48.838;9.330;2022-07-22T12:38:31;98313.03;;;31.50;37.91
55604;BME280;41468;48.838;9.330;2022-07-22T12:41:21;98309.38;;;31.67;38.68
55604;BME280;41468;48.838;9.330;2022-07-22T12:43:51;98300.09;;;31.72;39.13
55604;BME280;41468;48.838;9.330;2022-07-22T12:46:24;98306.81;;;31.69;37.92
55604;BME280;41468;48.838;9.330;2022-07-22T12:48:54;98301.03;;;32.03;37.95
55604;BME280;41468;48.838;9.330;2022-07-22T12:51:27;98297.13;;;31.36;37.53
55604;BME280;41468;48.838;9.330;2022-07-22T12:53:57;98297.59;;;31.57;36.60
55604;BME280;41468;48.838;9.330;2022-07-22T12:56:28;98301.06;;;31.91;36.57
55604;BME280;41468;48.838;9.330;2022-07-22T12:59:03;98287.97;;;31.83;36.41
55604;BME280;41468;48.838;9.330;2022-07-22T13:01:35;98292.31;;;32.00;37.85
55604;BME280;41468;48.838;9.330;2022-07-22T13:04:05;98290.25;;;32.01;37.08
55604;BME280;41468;48.838;9.330;2022-07-22T13:06:35;98293.00;;;32.12;36.68
55604;BME280;41468;48.838;9.330;2022-07-22T13:09:05;98291.69;;;32.19;37.18
55604;BME280;41468;48.838;9.330;2022-07-22T13:11:43;98289.00;;;32.38;37.84
55604;BME280;41468;48.838;9.330;2022-07-22T13:14:14;98291.63;;;32.30;36.87
55604;BME280;41468;48.838;9.330;2022-07-22T13:16:46;98283.41;;;32.27;36.77
55604;BME280;41468;48.838;9.330;2022-07-22T13:19:16;98281.31;;;32.33;36.46
55604;BME280;41468;48.838;9.330;2022-07-22T13:21:46;98279.50;;;32.35;37.26
55604;BME280;41468;48.838;9.330;2022-07-22T13:24:15;98280.63;;;32.21;36.56
55604;BME280;41468;48.838;9.330;2022-07-22T13:26:45;98273.28;;;31.95;37.32
55604;BME280;41468;48.838;9.330;2022-07-22T13:29:16;98275.16;;;31.76;36.18